sensor_id;sensor_type;location;lat;lon;timestamp;temperature;humidity
15413;DHT22;7805;49.554;7.632;2022-11-20T00:01:39;6.30;99.90
15413;DHT22;7805;49.554;7.632;2022-11-20T00:04:05;6.30;99.90
15413;DHT22;7805;49.554;7.632;2022-11-20T00:06:31;6.40;99.90
15413;DHT22;7805;49.554;7.632;2022-11-20T00:08:58;6.40;99.90
15413;DHT22;7805;49.554;7.632;2022-11-20T00:11:26;6.50;99.90
15413;DHT22;7805;49.554;7.632;2022-11-20T00:13:54;6.50;99.90
15413;DHT22;7805;49.554;7.632;2022-11-20T00:16:22;6.60;99.90
15413;DHT22;7805;49.554;7.632;2022-11-20T00:18:48;6.60;99.90
15413;DHT22;7805;49.554;7.632;2022-11-20T00:21:21;6.60;99.90
15413;DHT22;7805;49.554;7.632;2022-11-20T00:23:47;6.60;99.90
15413;DHT22;7805;49.554;7.632;2022-11-20T00:26:14;6.50;99.90
15413;DHT22;7805;49.554;7.632;2022-11-20T00:28:41;6.40;99.90
15413;DHT22;7805;49.554;7.632;2022-11-20T00:31:09;6.40;99.90
15413;DHT22;7805;49.554;7.632;2022-11-20T00:33:35;6.40;99.90
15413;DHT22;7805;49.554;7.632;2022-11-20T00:36:06;6.40;99.90
15413;DHT22;7805;49.554;7.632;2022-11-20T00:38:32;6.40;99.90
15413;DHT22;7805;49.554;7.632;2022-11-20T00:40:59;6.40;99.90
15413;DHT22;7805;49.554;7.632;2022-11-20T00:43:25;6.40;99.90
15413;DHT22;7805;49.554;7.632;2022-11-20T00:45:55;6.40;99.90
15413;DHT22;7805;49.554;7.632;2022-11-20T00:48:21;6.40;99.90
15413;DHT22;7805;49.554;7.632;2022-11-20T00:50:46;6.30;99.90
15413;DHT22;7805;49.554;7.632;2022-11-20T00:53:12;6.20;99.90
15413;DHT22;7805;49.554;7.632;2022-11-20T00:55:37;6.00;99.90
15413;DHT22;7805;49.554;7.632;2022-11-20T00:58:03;6.00;99.90
15413;DHT22;7805;49.554;7.632;2022-11-20T01:00:28;6.10;99.90
15413;DHT22;7805;49.554;7.632;2022-11-20T01:02:55;6.60;99.90
15413;DHT22;7805;49.554;7.632;2022-11-20T01:05:21;6.20;99.90
15413;DHT22;7805;49.554;7.632;2022-11-20T01:07:46;6.20;99.90
15413;DHT22;7805;49.554;7.632;2022-11-20T01:10:12;6.30;99.90
15413;DHT22;7805;49.554;7.632;2022-11-20T01:12:37;6.40;99.90
15413;DHT22;7805;49.554;7.632;2022-11-20T01:15:03;6.30;99.90
15413;DHT22;7805;49.554;7.632;2022-11-20T01:17:31;6.30;99.90
15413;DHT22;7805;49.554;7.632;2022-11-20T01:19:57;6.30;99.90
15413;DHT22;7805;49.554;7.632;2022-11-20T01:22:22;6.30;99.90
15413;DHT22;7805;49.554;7.632;2022-11-20T01:24:48;6.20;99.90
15413;DHT22;7805;49.554;7.632;2022-11-20T01:27:13;6.10;99.90
15413;DHT22;7805;49.554;7.632;2022-11-20T01:29:39;6.10;99.90
15413;DHT22;7805;49.554;7.632;2022-11-20T01:32:04;6.20;99.90
15413;DHT22;7805;49.554;7.632;2022-11-20T01:34:30;6.20;99.90
15413;DHT22;7805;49.554;7.632;2022-11-20T01:36:56;6.30;99.90
15413;DHT22;7805;49.554;7.632;2022-11-20T01:39:23;6.30;99.90
15413;DHT22;7805;49.554;7.632;2022-11-20T01:41:51;6.30;99.90
15413;DHT22;7805;49.554;7.632;2022-11-20T01:47:20;6.30;99.90
15413;DHT22;7805;49.554;7.632;2022-11-20T01:49:52;6.30;99.90
15413;DHT22;7805;49.554;7.632;2022-11-20T01:52:23;6.40;99.90
15413;DHT22;7805;49.554;7.632;2022-11-20T01:54:56;6.30;99.90
15413;DHT22;7805;49.554;7.632;2022-11-20T01:57:23;6.40;99.90
15413;DHT22;7805;49.554;7.632;2022-11-20T02:00:02;6.40;99.90
15413;DHT22;7805;49.554;7.632;2022-11-20T02:02:29;6.40;99.90
15413;DHT22;7805;49.554;7.632;2022-11-20T02:04:58;6.30;99.90
15413;DHT22;7805;49.554;7.632;2022-11-20T02:07:26;6.30;99.90
15413;DHT22;7805;49.554;7.632;2022-11-20T02:09:53;6.30;99.90
15413;DHT22;7805;49.554;7.632;2022-11-20T02:12:18;6.40;99.90
15413;DHT22;7805;49.554;7.632;2022-11-20T02:15:03;6.40;99.90
15413;DHT22;7805;49.554;7.632;2022-11-20T02:17:29;6.50;99.90
15413;DHT22;7805;49.554;7.632;2022-11-20T02:19:55;6.50;99.90
15413;DHT22;7805;49.554;7.632;2022-11-20T02:22:48;6.50;99.90
15413;DHT22;7805;49.554;7.632;2022-11-20T02:25:16;6.60;99.90
15413;DHT22;7805;49.554;7.632;2022-11-20T02:27:42;6.60;99.90
15413;DHT22;7805;49.554;7.632;2022-11-20T02:30:09;6.60;99.90
15413;DHT22;7805;49.554;7.632;2022-11-20T02:32:36;6.60;99.90
15413;DHT22;7805;49.554;7.632;2022-11-20T02:37:45;6.60;99.90
15413;DHT22;7805;49.554;7.632;2022-11-20T02:40:13;6.50;99.90
15413;DHT22;7805;49.554;7.632;2022-11-20T02:42:39;6.50;99.90
15413;DHT22;7805;49.554;7.632;2022-11-20T02:45:05;6.30;99.90
15413;DHT22;7805;49.554;7.632;2022-11-20T02:47:31;6.20;99.90
15413;DHT22;7805;49.554;7.632;2022-11-20T02:49:57;6.20;99.90
15413;DHT22;7805;49.554;7.632;2022-11-20T02:52:23;6.30;99.90
15413;DHT22;7805;49.554;7.632;2022-11-20T02:54:48;6.40;99.90
15413;DHT22;7805;49.554;7.632;2022-11-20T02:57:14;6.50;99.90
15413;DHT22;7805;49.554;7.632;2022-11-20T02:59:40;6.60;99.90
15413;DHT22;7805;49.554;7.632;2022-11-20T03:02:05;6.60;99.90
15413;DHT22;7805;49.554;7.632;2022-11-20T03:04:31;6.60;99.90
15413;DHT22;7805;49.554;7.632;2022-11-20T03:06:56;6.60;99.90
15413;DHT22;7805;49.554;7.632;2022-11-20T03:09:22;6.60;99.90
15413;DHT22;7805;49.554;7.632;2022-11-20T03:11:48;6.60;99.90
15413;DHT22;7805;49.554;7.632;2022-11-20T03:14:13;6.60;99.90
15413;DHT22;7805;49.554;7.632;2022-11-20T03:16:39;6.70;99.90
15413;DHT22;7805;49.554;7.632;2022-11-20T03:19:05;6.70;99.90
15413;DHT22;7805;49.554;7.632;2022-11-20T03:21:33;6.70;99.90
15413;DHT22;7805;49.554;7.632;2022-11-20T03:23:59;6.60;99.90
15413;DHT22;7805;49.554;7.632;2022-11-20T03:26:26;6.60;99.90
15413;DHT22;7805;49.554;7.632;2022-11-20T03:29:02;6.60;99.90
15413;DHT22;7805;49.554;7.632;2022-11-20T03:31:40;6.60;99.90
15413;DHT22;7805;49.554;7.632;2022-11-20T03:34:08;6.70;99.90
15413;DHT22;7805;49.554;7.632;2022-11-20T03:36:34;6.70;99.90
15413;DHT22;7805;49.554;7.632;2022-11-20T03:38:59;6.80;99.90
15413;DHT22;7805;49.554;7.632;2022-11-20T03:41:28;6.80;99.90
15413;DHT22;7805;49.554;7.632;2022-11-20T03:44:02;6.80;99.90
15413;DHT22;7805;49.554;7.632;2022-11-20T03:46:28;6.80;99.90
15413;DHT22;7805;49.554;7.632;2022-11-20T03:48:54;6.80;99.90
15413;DHT22;7805;49.554;7.632;2022-11-20T03:51:34;6.70;99.90
15413;DHT22;7805;49.554;7.632;2022-11-20T03:54:03;6.80;99.90
15413;DHT22;7805;49.554;7.632;2022-11-20T03:56:31;6.80;99.90
15413;DHT22;7805;49.554;7.632;2022-11-20T03:58:57;6.70;99.90
15413;DHT22;7805;49.554;7.632;2022-11-20T04:01:25;6.70;99.90
15413;DHT22;7805;49.554;7.632;2022-11-20T04:03:52;6.60;99.90
15413;DHT22;7805;49.554;7.632;2022-11-20T04:06:24;6.70;99.90
15413;DHT22;7805;49.554;7.632;2022-11-20T04:08:50;6.70;99.90
15413;DHT22;7805;49.554;7.632;2022-11-20T04:11:19;6.60;99.90
15413;DHT22;7805;49.554;7.632;2022-11-20T04:13:54;6.70;99.90
15413;DHT22;7805;49.554;7.632;2022-11-20T04:16:21;6.70;99.90
15413;DHT22;7805;49.554;7.632;2022-11-20T04:18:46;6.70;99.90
15413;DHT22;7805;49.554;7.632;2022-11-20T04:21:12;6.70;99.90
15413;DHT22;7805;49.554;7.632;2022-11-20T04:23:38;6.60;99.90
15413;DHT22;7805;49.554;7.632;2022-11-20T04:26:09;6.60;99.90
15413;DHT22;7805;49.554;7.632;2022-11-20T04:28:36;6.60;99.90
15413;DHT22;7805;49.554;7.632;2022-11-20T04:31:06;6.60;99.90
15413;DHT22;7805;49.554;7.632;2022-11-20T04:33:33;6.60;99.90
15413;DHT22;7805;49.554;7.632;2022-11-20T04:36:04;6.70;99.90
15413;DHT22;7805;49.554;7.632;2022-11-20T04:38:30;6.60;99.90
15413;DHT22;7805;49.554;7.632;2022-11-20T04:40:57;6.90;99.90
15413;DHT22;7805;49.554;7.632;2022-11-20T04:43:23;6.60;99.90
15413;DHT22;7805;49.554;7.632;2022-11-20T04:45:54;6.60;99.90
15413;DHT22;7805;49.554;7.632;2022-11-20T04:48:20;6.60;99.90
15413;DHT22;7805;49.554;7.632;2022-11-20T04:50:46;6.60;99.90
15413;DHT22;7805;49.554;7.632;2022-11-20T04:53:12;6.60;99.90
15413;DHT22;7805;49.554;7.632;2022-11-20T04:55:37;6.50;99.90
15413;DHT22;7805;49.554;7.632;2022-11-20T04:58:03;6.60;99.90
15413;DHT22;7805;49.554;7.632;2022-11-20T05:00:28;6.60;99.90
15413;DHT22;7805;49.554;7.632;2022-11-20T05:02:54;6.60;99.90
15413;DHT22;7805;49.554;7.632;2022-11-20T05:05:19;6.50;99.90
15413;DHT22;7805;49.554;7.632;2022-11-20T05:07:45;6.50;99.90
15413;DHT22;7805;49.554;7.632;2022-11-20T05:10:10;6.40;99.90
15413;DHT22;7805;49.554;7.632;2022-11-20T05:12:36;6.40;99.90
15413;DHT22;7805;49.554;7.632;2022-11-20T05:15:02;6.50;99.90
15413;DHT22;7805;49.554;7.632;2022-11-20T05:17:27;6.50;99.90
15413;DHT22;7805;49.554;7.632;2022-11-20T05:19:53;6.50;99.90
15413;DHT22;7805;49.554;7.632;2022-11-20T05:22:18;6.50;99.90
15413;DHT22;7805;49.554;7.632;2022-11-20T05:24:44;6.50;99.90
15413;DHT22;7805;49.554;7.632;2022-11-20T05:27:09;6.50;99.90
15413;DHT22;7805;49.554;7.632;2022-11-20T05:29:35;6.50;99.90
15413;DHT22;7805;49.554;7.632;2022-11-20T05:32:00;6.50;99.90
15413;DHT22;7805;49.554;7.632;2022-11-20T05:34:26;6.50;99.90
15413;DHT22;7805;49.554;7.632;2022-11-20T05:36:51;6.40;99.90
15413;DHT22;7805;49.554;7.632;2022-11-20T05:39:17;6.40;99.90
15413;DHT22;7805;49.554;7.632;2022-11-20T05:41:42;6.40;99.90
15413;DHT22;7805;49.554;7.632;2022-11-20T05:44:11;6.50;99.90
15413;DHT22;7805;49.554;7.632;2022-11-20T05:46:36;6.50;99.90
15413;DHT22;7805;49.554;7.632;2022-11-20T05:49:02;6.50;99.90
15413;DHT22;7805;49.554;7.632;2022-11-20T05:51:28;6.50;99.90
15413;DHT22;7805;49.554;7.632;2022-11-20T05:53:55;6.60;99.90
15413;DHT22;7805;49.554;7.632;2022-11-20T05:56:21;6.60;99.90
15413;DHT22;7805;49.554;7.632;2022-11-20T05:58:47;6.60;99.90
15413;DHT22;7805;49.554;7.632;2022-11-20T06:01:15;6.60;99.90
15413;DHT22;7805;49.554;7.632;2022-11-20T06:03:42;6.60;99.90
15413;DHT22;7805;49.554;7.632;2022-11-20T06:06:11;6.60;99.90
15413;DHT22;7805;49.554;7.632;2022-11-20T06:08:37;6.70;99.90
15413;DHT22;7805;49.554;7.632;2022-11-20T06:11:05;5.70;99.90
15413;DHT22;7805;49.554;7.632;2022-11-20T06:13:31;6.70;99.90
15413;DHT22;7805;49.554;7.632;2022-11-20T06:15:56;6.60;99.90
15413;DHT22;7805;49.554;7.632;2022-11-20T06:18:22;6.60;99.90
15413;DHT22;7805;49.554;7.632;2022-11-20T06:20:47;6.50;99.90
15413;DHT22;7805;49.554;7.632;2022-11-20T06:23:13;6.50;99.90
15413;DHT22;7805;49.554;7.632;2022-11-20T06:25:42;6.50;99.90
15413;DHT22;7805;49.554;7.632;2022-11-20T06:28:08;6.50;99.90
15413;DHT22;7805;49.554;7.632;2022-11-20T06:30:35;6.50;99.90
15413;DHT22;7805;49.554;7.632;2022-11-20T06:33:01;6.50;99.90
15413;DHT22;7805;49.554;7.632;2022-11-20T06:35:26;6.50;99.90
15413;DHT22;7805;49.554;7.632;2022-11-20T06:37:52;6.50;99.90
15413;DHT22;7805;49.554;7.632;2022-11-20T06:40:17;6.50;99.90
15413;DHT22;7805;49.554;7.632;2022-11-20T06:42:43;6.60;99.90
15413;DHT22;7805;49.554;7.632;2022-11-20T06:45:09;6.60;99.90
15413;DHT22;7805;49.554;7.632;2022-11-20T06:47:35;6.60;99.90
15413;DHT22;7805;49.554;7.632;2022-11-20T06:50:00;6.60;99.90
15413;DHT22;7805;49.554;7.632;2022-11-20T06:52:26;6.60;99.90
15413;DHT22;7805;49.554;7.632;2022-11-20T06:54:51;6.60;99.90
15413;DHT22;7805;49.554;7.632;2022-11-20T06:57:17;6.60;99.90
15413;DHT22;7805;49.554;7.632;2022-11-20T06:59:42;6.70;99.90
15413;DHT22;7805;49.554;7.632;2022-11-20T07:02:11;7.80;99.90
15413;DHT22;7805;49.554;7.632;2022-11-20T07:04:38;6.70;99.90
15413;DHT22;7805;49.554;7.632;2022-11-20T07:07:03;6.60;99.90
15413;DHT22;7805;49.554;7.632;2022-11-20T07:09:29;6.70;99.90
15413;DHT22;7805;49.554;7.632;2022-11-20T07:11:54;6.70;99.90
15413;DHT22;7805;49.554;7.632;2022-11-20T07:14:20;6.80;99.90
15413;DHT22;7805;49.554;7.632;2022-11-20T07:16:45;6.70;99.90
15413;DHT22;7805;49.554;7.632;2022-11-20T07:19:11;6.80;99.90
15413;DHT22;7805;49.554;7.632;2022-11-20T07:21:36;6.90;99.90
15413;DHT22;7805;49.554;7.632;2022-11-20T07:24:02;6.90;99.90
15413;DHT22;7805;49.554;7.632;2022-11-20T07:26:28;7.00;99.90
15413;DHT22;7805;49.554;7.632;2022-11-20T07:28:53;7.10;99.90
15413;DHT22;7805;49.554;7.632;2022-11-20T07:31:19;7.00;99.90
15413;DHT22;7805;49.554;7.632;2022-11-20T07:33:44;7.10;99.90
15413;DHT22;7805;49.554;7.632;2022-11-20T07:36:10;7.10;99.90
15413;DHT22;7805;49.554;7.632;2022-11-20T07:38:37;7.20;99.90
15413;DHT22;7805;49.554;7.632;2022-11-20T07:41:02;7.20;99.90
15413;DHT22;7805;49.554;7.632;2022-11-20T07:43:29;7.20;99.90
15413;DHT22;7805;49.554;7.632;2022-11-20T07:45:55;7.20;99.90
15413;DHT22;7805;49.554;7.632;2022-11-20T07:48:21;7.20;99.90
15413;DHT22;7805;49.554;7.632;2022-11-20T07:50:47;7.30;99.90
15413;DHT22;7805;49.554;7.632;2022-11-20T07:53:12;7.40;99.90
15413;DHT22;7805;49.554;7.632;2022-11-20T07:55:39;7.40;99.90
15413;DHT22;7805;49.554;7.632;2022-11-20T07:58:05;7.40;99.90
15413;DHT22;7805;49.554;7.632;2022-11-20T08:00:30;7.50;99.90
15413;DHT22;7805;49.554;7.632;2022-11-20T08:02:56;7.60;99.90
15413;DHT22;7805;49.554;7.632;2022-11-20T08:05:22;7.70;99.90
15413;DHT22;7805;49.554;7.632;2022-11-20T08:07:47;7.90;99.90
15413;DHT22;7805;49.554;7.632;2022-11-20T08:10:14;8.00;99.90
15413;DHT22;7805;49.554;7.632;2022-11-20T08:12:49;8.00;99.90
15413;DHT22;7805;49.554;7.632;2022-11-20T08:15:33;8.10;99.90
15413;DHT22;7805;49.554;7.632;2022-11-20T08:18:00;8.20;99.90
15413;DHT22;7805;49.554;7.632;2022-11-20T08:20:26;8.30;99.90
15413;DHT22;7805;49.554;7.632;2022-11-20T08:22:52;8.30;99.90
15413;DHT22;7805;49.554;7.632;2022-11-20T08:25:17;8.40;99.90
15413;DHT22;7805;49.554;7.632;2022-11-20T08:27:44;8.50;99.90
15413;DHT22;7805;49.554;7.632;2022-11-20T08:30:10;8.60;99.90
15413;DHT22;7805;49.554;7.632;2022-11-20T08:32:35;8.70;99.90
15413;DHT22;7805;49.554;7.632;2022-11-20T08:35:03;8.70;99.90
15413;DHT22;7805;49.554;7.632;2022-11-20T08:37:28;8.80;99.90
15413;DHT22;7805;49.554;7.632;2022-11-20T08:39:54;8.90;99.90
15413;DHT22;7805;49.554;7.632;2022-11-20T08:42:22;8.90;99.90
15413;DHT22;7805;49.554;7.632;2022-11-20T08:44:47;9.00;99.90
15413;DHT22;7805;49.554;7.632;2022-11-20T08:47:13;9.00;99.90
15413;DHT22;7805;49.554;7.632;2022-11-20T08:49:39;9.00;99.90
15413;DHT22;7805;49.554;7.632;2022-11-20T08:52:04;9.10;99.90
15413;DHT22;7805;49.554;7.632;2022-11-20T08:54:30;9.20;99.90
15413;DHT22;7805;49.554;7.632;2022-11-20T08:56:56;9.20;99.90
15413;DHT22;7805;49.554;7.632;2022-11-20T08:59:21;9.30;99.90
15413;DHT22;7805;49.554;7.632;2022-11-20T09:01:47;9.30;99.90
15413;DHT22;7805;49.554;7.632;2022-11-20T09:04:13;9.30;99.90
15413;DHT22;7805;49.554;7.632;2022-11-20T09:06:39;9.30;99.90
15413;DHT22;7805;49.554;7.632;2022-11-20T09:09:05;9.30;99.90
15413;DHT22;7805;49.554;7.632;2022-11-20T09:11:31;9.30;99.90
15413;DHT22;7805;49.554;7.632;2022-11-20T09:13:57;9.30;99.90
15413;DHT22;7805;49.554;7.632;2022-11-20T09:16:22;9.20;99.90
15413;DHT22;7805;49.554;7.632;2022-11-20T09:18:50;9.20;99.90
15413;DHT22;7805;49.554;7.632;2022-11-20T09:21:16;9.10;99.90
15413;DHT22;7805;49.554;7.632;2022-11-20T09:23:42;9.20;99.90
15413;DHT22;7805;49.554;7.632;2022-11-20T09:26:11;9.10;99.90
15413;DHT22;7805;49.554;7.632;2022-11-20T09:28:36;9.00;99.90
15413;DHT22;7805;49.554;7.632;2022-11-20T09:31:14;9.00;99.90
15413;DHT22;7805;49.554;7.632;2022-11-20T09:33:42;9.00;99.90
15413;DHT22;7805;49.554;7.632;2022-11-20T09:36:08;9.10;99.90
15413;DHT22;7805;49.554;7.632;2022-11-20T09:38:34;9.10;99.90
15413;DHT22;7805;49.554;7.632;2022-11-20T09:41:04;9.10;99.90
15413;DHT22;7805;49.554;7.632;2022-11-20T09:46:36;9.20;99.90
15413;DHT22;7805;49.554;7.632;2022-11-20T09:52:01;9.30;99.90
15413;DHT22;7805;49.554;7.632;2022-11-20T09:54:37;9.40;99.90
15413;DHT22;7805;49.554;7.632;2022-11-20T09:57:23;9.70;99.90
15413;DHT22;7805;49.554;7.632;2022-11-20T09:59:56;10.40;99.90
15413;DHT22;7805;49.554;7.632;2022-11-20T10:02:34;11.40;99.90
15413;DHT22;7805;49.554;7.632;2022-11-20T10:05:15;11.60;99.90
15413;DHT22;7805;49.554;7.632;2022-11-20T10:07:50;11.60;99.90
15413;DHT22;7805;49.554;7.632;2022-11-20T10:10:34;11.10;99.90
15413;DHT22;7805;49.554;7.632;2022-11-20T10:24:52;11.90;99.90
15413;DHT22;7805;49.554;7.632;2022-11-20T10:32:37;11.70;99.90
15413;DHT22;7805;49.554;7.632;2022-11-20T10:38:12;11.20;99.90
15413;DHT22;7805;49.554;7.632;2022-11-20T10:40:50;11.00;99.90
15413;DHT22;7805;49.554;7.632;2022-11-20T10:43:29;11.00;99.90
15413;DHT22;7805;49.554;7.632;2022-11-20T10:46:03;10.80;99.90
15413;DHT22;7805;49.554;7.632;2022-11-20T10:48:32;10.70;99.90
15413;DHT22;7805;49.554;7.632;2022-11-20T10:56:31;10.20;99.90
15413;DHT22;7805;49.554;7.632;2022-11-20T10:59:22;10.20;99.90
15413;DHT22;7805;49.554;7.632;2022-11-20T11:01:52;10.20;99.90
15413;DHT22;7805;49.554;7.632;2022-11-20T11:07:35;10.40;99.90
15413;DHT22;7805;49.554;7.632;2022-11-20T11:10:51;10.50;99.90
15413;DHT22;7805;49.554;7.632;2022-11-20T11:12:51;10.50;99.90
15413;DHT22;7805;49.554;7.632;2022-11-20T11:15:37;10.40;99.90
15413;DHT22;7805;49.554;7.632;2022-11-20T11:18:03;10.30;99.90
15413;DHT22;7805;49.554;7.632;2022-11-20T11:20:29;10.30;99.90
15413;DHT22;7805;49.554;7.632;2022-11-20T11:22:57;10.50;99.90
15413;DHT22;7805;49.554;7.632;2022-11-20T11:27:49;11.30;99.90
15413;DHT22;7805;49.554;7.632;2022-11-20T11:30:17;11.60;99.90
15413;DHT22;7805;49.554;7.632;2022-11-20T11:32:43;11.90;99.90
15413;DHT22;7805;49.554;7.632;2022-11-20T11:35:27;12.50;99.90
15413;DHT22;7805;49.554;7.632;2022-11-20T11:38:05;12.90;99.90
15413;DHT22;7805;49.554;7.632;2022-11-20T11:40:35;12.60;99.90
15413;DHT22;7805;49.554;7.632;2022-11-20T11:43:05;12.10;99.90
15413;DHT22;7805;49.554;7.632;2022-11-20T11:45:53;11.90;99.90
15413;DHT22;7805;49.554;7.632;2022-11-20T11:48:20;12.00;99.90
15413;DHT22;7805;49.554;7.632;2022-11-20T11:50:50;12.00;99.90
15413;DHT22;7805;49.554;7.632;2022-11-20T11:53:19;11.90;99.90
15413;DHT22;7805;49.554;7.632;2022-11-20T11:56:12;11.80;99.90
15413;DHT22;7805;49.554;7.632;2022-11-20T11:58:50;11.60;99.90
15413;DHT22;7805;49.554;7.632;2022-11-20T12:06:45;11.00;99.90
15413;DHT22;7805;49.554;7.632;2022-11-20T12:09:13;10.90;99.90
15413;DHT22;7805;49.554;7.632;2022-11-20T12:12:27;10.80;99.90
15413;DHT22;7805;49.554;7.632;2022-11-20T12:14:56;10.80;99.90
15413;DHT22;7805;49.554;7.632;2022-11-20T12:17:23;10.80;99.90
15413;DHT22;7805;49.554;7.632;2022-11-20T12:19:49;10.80;99.90
15413;DHT22;7805;49.554;7.632;2022-11-20T12:22:35;10.80;99.90
15413;DHT22;7805;49.554;7.632;2022-11-20T12:25:07;10.70;99.90
15413;DHT22;7805;49.554;7.632;2022-11-20T12:30:16;10.60;99.90
15413;DHT22;7805;49.554;7.632;2022-11-20T12:35:47;10.80;99.90
15413;DHT22;7805;49.554;7.632;2022-11-20T12:55:32;11.40;99.90
15413;DHT22;7805;49.554;7.632;2022-11-20T13:01:40;11.60;99.90
15413;DHT22;7805;49.554;7.632;2022-11-20T13:07:01;12.10;99.90
15413;DHT22;7805;49.554;7.632;2022-11-20T13:09:27;13.20;99.90
15413;DHT22;7805;49.554;7.632;2022-11-20T13:18:01;13.80;99.90
15413;DHT22;7805;49.554;7.632;2022-11-20T13:20:29;14.00;99.90
15413;DHT22;7805;49.554;7.632;2022-11-20T13:22:56;14.30;99.90
15413;DHT22;7805;49.554;7.632;2022-11-20T13:27:51;14.70;99.90
15413;DHT22;7805;49.554;7.632;2022-11-20T13:30:19;14.40;99.80
15413;DHT22;7805;49.554;7.632;2022-11-20T13:32:54;13.90;99.90
15413;DHT22;7805;49.554;7.632;2022-11-20T13:35:32;13.20;99.90
15413;DHT22;7805;49.554;7.632;2022-11-20T13:40:27;12.10;99.90
15413;DHT22;7805;49.554;7.632;2022-11-20T13:45:34;11.70;99.90
15413;DHT22;7805;49.554;7.632;2022-11-20T13:48:15;11.50;99.90
15413;DHT22;7805;49.554;7.632;2022-11-20T13:56:59;11.00;99.90
15413;DHT22;7805;49.554;7.632;2022-11-20T14:02:14;10.70;99.90
15413;DHT22;7805;49.554;7.632;2022-11-20T14:04:45;10.60;99.90
15413;DHT22;7805;49.554;7.632;2022-11-20T14:07:11;10.70;99.90
15413;DHT22;7805;49.554;7.632;2022-11-20T14:09:37;10.60;99.90
15413;DHT22;7805;49.554;7.632;2022-11-20T14:12:12;10.60;99.90
15413;DHT22;7805;49.554;7.632;2022-11-20T14:14:51;10.50;99.90
15413;DHT22;7805;49.554;7.632;2022-11-20T14:17:33;10.40;99.90
15413;DHT22;7805;49.554;7.632;2022-11-20T14:20:13;10.30;99.90
15413;DHT22;7805;49.554;7.632;2022-11-20T14:22:48;10.20;99.90
15413;DHT22;7805;49.554;7.632;2022-11-20T14:27:41;10.10;99.90
15413;DHT22;7805;49.554;7.632;2022-11-20T14:30:15;10.10;99.90
15413;DHT22;7805;49.554;7.632;2022-11-20T14:32:42;10.00;99.90
15413;DHT22;7805;49.554;7.632;2022-11-20T14:35:14;10.10;99.90
15413;DHT22;7805;49.554;7.632;2022-11-20T14:37:44;10.00;99.90
15413;DHT22;7805;49.554;7.632;2022-11-20T14:42:49;10.10;99.90
15413;DHT22;7805;49.554;7.632;2022-11-20T14:45:15;10.10;99.90
15413;DHT22;7805;49.554;7.632;2022-11-20T14:47:42;10.00;99.90
15413;DHT22;7805;49.554;7.632;2022-11-20T14:50:28;10.00;99.90
15413;DHT22;7805;49.554;7.632;2022-11-20T14:52:56;10.10;99.90
15413;DHT22;7805;49.554;7.632;2022-11-20T14:55:34;10.10;99.90
15413;DHT22;7805;49.554;7.632;2022-11-20T14:58:05;10.10;99.90
15413;DHT22;7805;49.554;7.632;2022-11-20T15:00:32;10.10;99.90
15413;DHT22;7805;49.554;7.632;2022-11-20T15:02:58;10.10;99.90
15413;DHT22;7805;49.554;7.632;2022-11-20T15:05:37;10.00;99.90
15413;DHT22;7805;49.554;7.632;2022-11-20T15:08:10;10.00;99.90
15413;DHT22;7805;49.554;7.632;2022-11-20T15:10:36;10.00;99.90
15413;DHT22;7805;49.554;7.632;2022-11-20T15:13:05;10.00;99.90
15413;DHT22;7805;49.554;7.632;2022-11-20T15:15:43;10.10;99.90
15413;DHT22;7805;49.554;7.632;2022-11-20T15:18:14;10.00;99.90
15413;DHT22;7805;49.554;7.632;2022-11-20T15:20:40;10.00;99.90
15413;DHT22;7805;49.554;7.632;2022-11-20T15:23:18;10.00;99.90
15413;DHT22;7805;49.554;7.632;2022-11-20T15:25:44;10.00;99.90
15413;DHT22;7805;49.554;7.632;2022-11-20T15:28:23;10.00;99.90
15413;DHT22;7805;49.554;7.632;2022-11-20T15:30:52;10.00;99.90
15413;DHT22;7805;49.554;7.632;2022-11-20T15:33:18;9.90;99.90
15413;DHT22;7805;49.554;7.632;2022-11-20T15:35:44;9.90;99.90
15413;DHT22;7805;49.554;7.632;2022-11-20T15:38:10;9.90;99.90
15413;DHT22;7805;49.554;7.632;2022-11-20T15:40:36;9.90;99.90
15413;DHT22;7805;49.554;7.632;2022-11-20T15:43:01;9.90;99.90
15413;DHT22;7805;49.554;7.632;2022-11-20T15:46:14;9.90;99.90
15413;DHT22;7805;49.554;7.632;2022-11-20T15:48:44;9.90;99.90
15413;DHT22;7805;49.554;7.632;2022-11-20T15:53:40;9.70;99.90
15413;DHT22;7805;49.554;7.632;2022-11-20T15:56:11;9.80;99.90
15413;DHT22;7805;49.554;7.632;2022-11-20T15:58:37;9.70;99.90
15413;DHT22;7805;49.554;7.632;2022-11-20T16:01:03;9.70;99.90
15413;DHT22;7805;49.554;7.632;2022-11-20T16:03:29;9.70;99.90
15413;DHT22;7805;49.554;7.632;2022-11-20T16:05:55;9.70;99.90
15413;DHT22;7805;49.554;7.632;2022-11-20T16:08:20;9.70;99.90
15413;DHT22;7805;49.554;7.632;2022-11-20T16:10:46;12.20;99.90
15413;DHT22;7805;49.554;7.632;2022-11-20T16:13:14;9.80;99.90
15413;DHT22;7805;49.554;7.632;2022-11-20T16:16:02;9.80;99.90
15413;DHT22;7805;49.554;7.632;2022-11-20T16:18:30;9.70;99.90
15413;DHT22;7805;49.554;7.632;2022-11-20T16:20:56;9.70;99.90
15413;DHT22;7805;49.554;7.632;2022-11-20T16:23:22;9.70;99.90
15413;DHT22;7805;49.554;7.632;2022-11-20T16:25:48;9.60;99.90
15413;DHT22;7805;49.554;7.632;2022-11-20T16:28:14;9.70;99.90
15413;DHT22;7805;49.554;7.632;2022-11-20T16:30:39;9.70;99.90
15413;DHT22;7805;49.554;7.632;2022-11-20T16:33:14;9.70;99.90
15413;DHT22;7805;49.554;7.632;2022-11-20T16:35:40;9.60;99.90
15413;DHT22;7805;49.554;7.632;2022-11-20T16:38:06;9.60;99.90
15413;DHT22;7805;49.554;7.632;2022-11-20T16:40:31;9.60;99.90
15413;DHT22;7805;49.554;7.632;2022-11-20T16:42:57;9.50;99.90
15413;DHT22;7805;49.554;7.632;2022-11-20T16:45:23;9.40;99.90
15413;DHT22;7805;49.554;7.632;2022-11-20T16:47:49;9.30;99.90
15413;DHT22;7805;49.554;7.632;2022-11-20T16:50:15;9.20;99.90
15413;DHT22;7805;49.554;7.632;2022-11-20T16:52:40;9.10;99.90
15413;DHT22;7805;49.554;7.632;2022-11-20T16:55:06;9.10;99.90
15413;DHT22;7805;49.554;7.632;2022-11-20T16:57:32;9.10;99.90
15413;DHT22;7805;49.554;7.632;2022-11-20T16:59:58;9.10;99.90
15413;DHT22;7805;49.554;7.632;2022-11-20T17:02:24;9.10;99.90
15413;DHT22;7805;49.554;7.632;2022-11-20T17:04:51;9.00;99.90
15413;DHT22;7805;49.554;7.632;2022-11-20T17:07:16;8.90;99.90
15413;DHT22;7805;49.554;7.632;2022-11-20T17:09:42;8.90;99.90
15413;DHT22;7805;49.554;7.632;2022-11-20T17:12:08;8.80;99.90
15413;DHT22;7805;49.554;7.632;2022-11-20T17:14:33;8.80;99.90
15413;DHT22;7805;49.554;7.632;2022-11-20T17:16:59;8.80;99.90
15413;DHT22;7805;49.554;7.632;2022-11-20T17:19:25;8.80;99.90
15413;DHT22;7805;49.554;7.632;2022-11-20T17:21:50;8.80;99.90
15413;DHT22;7805;49.554;7.632;2022-11-20T17:24:16;8.70;99.90
15413;DHT22;7805;49.554;7.632;2022-11-20T17:26:42;8.70;99.90
15413;DHT22;7805;49.554;7.632;2022-11-20T17:29:18;8.70;99.90
15413;DHT22;7805;49.554;7.632;2022-11-20T17:31:48;8.70;99.90
15413;DHT22;7805;49.554;7.632;2022-11-20T17:34:15;8.70;99.90
15413;DHT22;7805;49.554;7.632;2022-11-20T17:36:41;8.60;99.90
15413;DHT22;7805;49.554;7.632;2022-11-20T17:39:13;8.60;99.90
15413;DHT22;7805;49.554;7.632;2022-11-20T17:41:39;8.50;99.90
15413;DHT22;7805;49.554;7.632;2022-11-20T17:44:05;8.40;99.90
15413;DHT22;7805;49.554;7.632;2022-11-20T17:46:32;8.20;99.90
15413;DHT22;7805;49.554;7.632;2022-11-20T17:48:58;9.80;99.90
15413;DHT22;7805;49.554;7.632;2022-11-20T17:51:26;8.30;99.90
15413;DHT22;7805;49.554;7.632;2022-11-20T17:53:55;8.30;99.90